sensor_id;sensor_type;location;lat;lon;timestamp;pressure;altitude;pressure_sealevel;temperature;humidity
38400;BME280;24180;42.676;23.320;2023-11-21T00:02:14;94515.25;;;4.10;77.06
38400;BME280;24180;42.676;23.320;2023-11-21T00:04:40;94498.34;;;4.12;77.25
38400;BME280;24180;42.676;23.320;2023-11-21T00:07:05;94523.84;;;4.13;77.06
38400;BME280;24180;42.676;23.320;2023-11-21T00:09:34;94497.50;;;3.96;77.05
38400;BME280;24180;42.676;23.320;2023-11-21T00:12:02;94520.94;;;4.18;77.07
38400;BME280;24180;42.676;23.320;2023-11-21T00:14:27;94528.38;;;4.24;77.08
38400;BME280;24180;42.676;23.320;2023-11-21T00:16:53;94513.34;;;3.96;77.05
38400;BME280;24180;42.676;23.320;2023-11-21T00:19:18;94533.75;;;4.18;77.07
38400;BME280;24180;42.676;23.320;2023-11-21T00:21:43;94510.41;;;4.13;77.06
38400;BME280;24180;42.676;23.320;2023-11-21T00:24:11;94531.69;;;4.23;77.08
38400;BME280;24180;42.676;23.320;2023-11-21T00:26:39;94515.38;;;4.13;77.06
38400;BME280;24180;42.676;23.320;2023-11-21T00:29:05;94497.31;;;4.05;77.06
38400;BME280;24180;42.676;23.320;2023-11-21T00:31:34;94493.03;;;4.21;77.08
38400;BME280;24180;42.676;23.320;2023-11-21T00:33:59;94504.81;;;4.29;77.08
38400;BME280;24180;42.676;23.320;2023-11-21T00:36:24;94519.50;;;4.38;77.08
38400;BME280;24180;42.676;23.320;2023-11-21T00:38:51;94518.13;;;4.29;77.08
38400;BME280;24180;42.676;23.320;2023-11-21T00:41:16;94522.31;;;4.25;77.07
38400;BME280;24180;42.676;23.320;2023-11-21T00:43:42;94493.84;;;4.22;77.08
38400;BME280;24180;42.676;23.320;2023-11-21T00:46:07;94506.25;;;4.09;77.06
38400;BME280;24180;42.676;23.320;2023-11-21T00:48:33;94516.94;;;4.17;77.07
38400;BME280;24180;42.676;23.320;2023-11-21T00:50:58;94497.81;;;3.96;77.05
38400;BME280;24180;42.676;23.320;2023-11-21T00:53:24;94516.88;;;4.11;77.07
38400;BME280;24180;42.676;23.320;2023-11-21T00:55:49;94517.66;;;4.05;77.06
38400;BME280;24180;42.676;23.320;2023-11-21T00:58:16;94507.00;;;3.98;77.06
38400;BME280;24180;42.676;23.320;2023-11-21T01:00:41;94510.13;;;3.91;77.04
38400;BME280;24180;42.676;23.320;2023-11-21T01:03:07;94499.56;;;3.82;77.04
38400;BME280;24180;42.676;23.320;2023-11-21T01:05:33;94439.31;;;3.50;77.00
38400;BME280;24180;42.676;23.320;2023-11-21T01:07:59;94480.34;;;3.76;77.03
38400;BME280;24180;42.676;23.320;2023-11-21T01:10:25;94430.38;;;3.72;77.03
38400;BME280;24180;42.676;23.320;2023-11-21T01:12:50;94445.22;;;3.54;77.01
38400;BME280;24180;42.676;23.320;2023-11-21T01:15:16;94459.47;;;3.64;77.02
38400;BME280;24180;42.676;23.320;2023-11-21T01:17:41;94490.91;;;3.52;77.00
38400;BME280;24180;42.676;23.320;2023-11-21T01:20:08;94498.13;;;3.58;77.02
38400;BME280;24180;42.676;23.320;2023-11-21T01:22:38;94505.81;;;3.58;77.02
38400;BME280;24180;42.676;23.320;2023-11-21T01:25:04;94503.47;;;3.55;77.01
38400;BME280;24180;42.676;23.320;2023-11-21T01:27:33;94500.59;;;3.59;77.02
38400;BME280;24180;42.676;23.320;2023-11-21T01:29:59;94505.75;;;3.47;77.01
38400;BME280;24180;42.676;23.320;2023-11-21T01:32:25;94514.47;;;3.44;77.00
38400;BME280;24180;42.676;23.320;2023-11-21T01:34:50;94502.00;;;3.27;76.98
38400;BME280;24180;42.676;23.320;2023-11-21T01:37:16;94473.28;;;3.11;76.96
38400;BME280;24180;42.676;23.320;2023-11-21T01:39:45;94508.34;;;3.44;77.00
38400;BME280;24180;42.676;23.320;2023-11-21T01:42:12;94504.13;;;3.33;76.99
38400;BME280;24180;42.676;23.320;2023-11-21T01:44:38;94512.03;;;3.30;76.99
38400;BME280;24180;42.676;23.320;2023-11-21T01:47:05;94485.16;;;3.12;76.96
38400;BME280;24180;42.676;23.320;2023-11-21T01:49:35;94479.63;;;3.05;76.96
38400;BME280;24180;42.676;23.320;2023-11-21T01:52:01;94482.69;;;3.23;76.97
38400;BME280;24180;42.676;23.320;2023-11-21T01:54:27;94483.13;;;3.17;76.98
38400;BME280;24180;42.676;23.320;2023-11-21T01:56:57;94507.59;;;3.18;76.98
38400;BME280;24180;42.676;23.320;2023-11-21T01:59:31;94496.91;;;3.14;76.97
38400;BME280;24180;42.676;23.320;2023-11-21T02:01:58;94506.34;;;3.14;76.97
38400;BME280;24180;42.676;23.320;2023-11-21T02:04:23;94502.94;;;3.13;76.97
38400;BME280;24180;42.676;23.320;2023-11-21T02:06:48;94500.09;;;3.18;76.98
38400;BME280;24180;42.676;23.320;2023-11-21T02:09:16;94494.38;;;3.14;76.97
38400;BME280;24180;42.676;23.320;2023-11-21T02:11:42;94478.84;;;3.05;76.96
38400;BME280;24180;42.676;23.320;2023-11-21T02:14:09;94507.75;;;3.18;76.98
38400;BME280;24180;42.676;23.320;2023-11-21T02:16:35;94478.13;;;3.03;76.96
38400;BME280;24180;42.676;23.320;2023-11-21T02:19:02;94479.16;;;3.00;76.96
38400;BME280;24180;42.676;23.320;2023-11-21T02:21:29;94494.50;;;3.00;76.96
38400;BME280;24180;42.676;23.320;2023-11-21T02:23:55;94498.28;;;3.07;76.97
38400;BME280;24180;42.676;23.320;2023-11-21T02:26:21;94487.22;;;3.07;76.97
38400;BME280;24180;42.676;23.320;2023-11-21T02:28:46;94494.28;;;3.03;76.87
38400;BME280;24180;42.676;23.320;2023-11-21T02:31:12;94470.16;;;2.95;76.87
38400;BME280;24180;42.676;23.320;2023-11-21T02:33:37;94467.53;;;2.83;76.86
38400;BME280;24180;42.676;23.320;2023-11-21T02:36:03;94489.19;;;2.91;76.95
38400;BME280;24180;42.676;23.320;2023-11-21T02:38:29;94494.59;;;2.99;76.87
38400;BME280;24180;42.676;23.320;2023-11-21T02:40:55;94501.66;;;2.95;76.96
38400;BME280;24180;42.676;23.320;2023-11-21T02:43:20;94488.06;;;2.95;76.87
38400;BME280;24180;42.676;23.320;2023-11-21T02:45:46;94464.13;;;2.96;76.96
38400;BME280;24180;42.676;23.320;2023-11-21T02:48:11;94489.25;;;3.02;76.96
38400;BME280;24180;42.676;23.320;2023-11-21T02:50:37;94478.34;;;3.00;76.95
38400;BME280;24180;42.676;23.320;2023-11-21T02:53:03;94491.53;;;2.94;76.95
38400;BME280;24180;42.676;23.320;2023-11-21T02:55:30;94465.66;;;2.73;76.93
38400;BME280;24180;42.676;23.320;2023-11-21T02:58:00;94484.81;;;2.80;76.94
38400;BME280;24180;42.676;23.320;2023-11-21T03:00:25;94470.91;;;2.71;76.93
38400;BME280;24180;42.676;23.320;2023-11-21T03:02:51;94490.91;;;2.90;76.95
38400;BME280;24180;42.676;23.320;2023-11-21T03:05:16;94455.34;;;2.74;76.93
38400;BME280;24180;42.676;23.320;2023-11-21T03:07:42;94496.03;;;2.90;76.95
38400;BME280;24180;42.676;23.320;2023-11-21T03:10:08;94452.50;;;2.66;76.93
38400;BME280;24180;42.676;23.320;2023-11-21T03:12:34;94458.81;;;2.61;76.92
38400;BME280;24180;42.676;23.320;2023-11-21T03:15:00;94475.81;;;2.74;76.93
38400;BME280;24180;42.676;23.320;2023-11-21T03:17:27;94485.50;;;2.82;76.94
38400;BME280;24180;42.676;23.320;2023-11-21T03:19:52;94459.16;;;2.56;76.92
38400;BME280;24180;42.676;23.320;2023-11-21T03:22:18;94464.06;;;2.59;76.83
38400;BME280;24180;42.676;23.320;2023-11-21T03:24:44;94491.16;;;2.74;76.93
38400;BME280;24180;42.676;23.320;2023-11-21T03:27:09;94494.31;;;2.78;76.94
38400;BME280;24180;42.676;23.320;2023-11-21T03:29:35;94491.44;;;2.82;76.95
38400;BME280;24180;42.676;23.320;2023-11-21T03:32:00;94501.28;;;2.89;76.95
38400;BME280;24180;42.676;23.320;2023-11-21T03:34:27;94496.88;;;2.78;76.94
38400;BME280;24180;42.676;23.320;2023-11-21T03:36:53;94499.03;;;2.84;76.94
38400;BME280;24180;42.676;23.320;2023-11-21T03:39:20;94464.38;;;2.67;76.93
38400;BME280;24180;42.676;23.320;2023-11-21T03:41:46;94515.59;;;2.78;76.94
38400;BME280;24180;42.676;23.320;2023-11-21T03:44:12;94474.88;;;2.63;76.92
38400;BME280;24180;42.676;23.320;2023-11-21T03:46:38;94462.53;;;2.57;76.92
38400;BME280;24180;42.676;23.320;2023-11-21T03:49:03;94463.16;;;2.60;76.92
38400;BME280;24180;42.676;23.320;2023-11-21T03:51:28;94466.50;;;2.73;76.93
38400;BME280;24180;42.676;23.320;2023-11-21T03:53:54;94449.03;;;2.67;76.84
38400;BME280;24180;42.676;23.320;2023-11-21T03:56:19;94445.97;;;2.62;76.92
38400;BME280;24180;42.676;23.320;2023-11-21T03:58:47;94451.69;;;2.66;76.93
38400;BME280;24180;42.676;23.320;2023-11-21T04:01:24;94482.13;;;2.81;76.94
38400;BME280;24180;42.676;23.320;2023-11-21T04:03:50;94445.56;;;2.68;76.84
38400;BME280;24180;42.676;23.320;2023-11-21T04:06:16;94466.69;;;2.83;76.95
38400;BME280;24180;42.676;23.320;2023-11-21T04:08:45;94448.28;;;2.65;76.92
38400;BME280;24180;42.676;23.320;2023-11-21T04:11:11;94465.78;;;2.97;76.96
38400;BME280;24180;42.676;23.320;2023-11-21T04:13:41;94460.16;;;2.92;76.95
38400;BME280;24180;42.676;23.320;2023-11-21T04:16:08;94467.00;;;2.78;76.94
38400;BME280;24180;42.676;23.320;2023-11-21T04:18:37;94487.47;;;2.78;76.94
38400;BME280;24180;42.676;23.320;2023-11-21T04:21:03;94442.88;;;2.82;76.95
38400;BME280;24180;42.676;23.320;2023-11-21T04:23:29;94442.03;;;2.82;76.94
38400;BME280;24180;42.676;23.320;2023-11-21T04:25:56;94466.16;;;2.91;76.95
38400;BME280;24180;42.676;23.320;2023-11-21T04:28:23;94454.31;;;2.90;76.95
38400;BME280;24180;42.676;23.320;2023-11-21T04:30:49;94467.22;;;2.88;76.95
38400;BME280;24180;42.676;23.320;2023-11-21T04:33:15;94464.94;;;2.96;76.96
38400;BME280;24180;42.676;23.320;2023-11-21T04:35:41;94468.03;;;2.89;76.95
38400;BME280;24180;42.676;23.320;2023-11-21T04:38:06;94472.19;;;2.90;76.95
38400;BME280;24180;42.676;23.320;2023-11-21T04:40:32;94467.81;;;2.92;76.95
38400;BME280;24180;42.676;23.320;2023-11-21T04:42:57;94440.63;;;2.78;76.94
38400;BME280;24180;42.676;23.320;2023-11-21T04:45:23;94464.22;;;2.81;76.94
38400;BME280;24180;42.676;23.320;2023-11-21T04:47:48;94473.03;;;2.77;76.94
38400;BME280;24180;42.676;23.320;2023-11-21T04:50:13;94471.09;;;2.81;76.94
38400;BME280;24180;42.676;23.320;2023-11-21T04:52:39;94479.47;;;2.96;76.96
38400;BME280;24180;42.676;23.320;2023-11-21T04:55:04;94478.75;;;2.94;76.95
38400;BME280;24180;42.676;23.320;2023-11-21T04:57:31;94451.59;;;2.67;76.93
38400;BME280;24180;42.676;23.320;2023-11-21T04:59:57;94478.44;;;2.73;76.93
38400;BME280;24180;42.676;23.320;2023-11-21T05:02:22;94475.41;;;2.68;76.93
38400;BME280;24180;42.676;23.320;2023-11-21T05:04:48;94472.34;;;2.75;76.93
38400;BME280;24180;42.676;23.320;2023-11-21T05:07:14;94483.56;;;2.86;76.94
38400;BME280;24180;42.676;23.320;2023-11-21T05:09:43;94480.28;;;2.96;76.96
38400;BME280;24180;42.676;23.320;2023-11-21T05:12:14;94474.97;;;2.99;76.95
38400;BME280;24180;42.676;23.320;2023-11-21T05:14:40;94427.00;;;2.77;76.94
38400;BME280;24180;42.676;23.320;2023-11-21T05:17:05;94465.34;;;3.03;76.96
38400;BME280;24180;42.676;23.320;2023-11-21T05:19:31;94448.50;;;2.88;76.94
38400;BME280;24180;42.676;23.320;2023-11-21T05:21:58;94477.59;;;2.98;76.86
38400;BME280;24180;42.676;23.320;2023-11-21T05:24:24;94445.31;;;2.84;76.94
38400;BME280;24180;42.676;23.320;2023-11-21T05:26:50;94439.69;;;2.92;76.95
38400;BME280;24180;42.676;23.320;2023-11-21T05:29:15;94473.06;;;3.14;76.88
38400;BME280;24180;42.676;23.320;2023-11-21T05:31:40;94469.59;;;3.15;76.88
38400;BME280;24180;42.676;23.320;2023-11-21T05:34:06;94487.00;;;3.10;76.87
38400;BME280;24180;42.676;23.320;2023-11-21T05:36:31;94488.88;;;3.08;76.88
38400;BME280;24180;42.676;23.320;2023-11-21T05:38:57;94490.91;;;3.03;76.87
38400;BME280;24180;42.676;23.320;2023-11-21T05:41:22;94486.41;;;2.94;76.95
38400;BME280;24180;42.676;23.320;2023-11-21T05:43:48;94477.91;;;2.93;76.95
38400;BME280;24180;42.676;23.320;2023-11-21T05:46:14;94496.03;;;2.90;76.95
38400;BME280;24180;42.676;23.320;2023-11-21T05:48:39;94489.91;;;2.93;76.86
38400;BME280;24180;42.676;23.320;2023-11-21T05:51:06;94487.03;;;2.97;76.95
38400;BME280;24180;42.676;23.320;2023-11-21T05:53:31;94488.28;;;2.92;76.86
38400;BME280;24180;42.676;23.320;2023-11-21T05:55:57;94451.66;;;2.78;76.94
38400;BME280;24180;42.676;23.320;2023-11-21T05:58:22;94477.00;;;2.94;76.96
38400;BME280;24180;42.676;23.320;2023-11-21T06:00:48;94492.78;;;3.01;76.87
38400;BME280;24180;42.676;23.320;2023-11-21T06:03:13;94488.25;;;3.04;76.96
38400;BME280;24180;42.676;23.320;2023-11-21T06:05:39;94483.84;;;3.06;76.97
38400;BME280;24180;42.676;23.320;2023-11-21T06:08:04;94484.56;;;3.08;76.97
38400;BME280;24180;42.676;23.320;2023-11-21T06:10:31;94478.78;;;3.17;76.98
38400;BME280;24180;42.676;23.320;2023-11-21T06:12:57;94462.88;;;3.01;76.96
38400;BME280;24180;42.676;23.320;2023-11-21T06:15:23;94492.91;;;3.23;76.97
38400;BME280;24180;42.676;23.320;2023-11-21T06:17:49;94458.16;;;3.08;76.97
38400;BME280;24180;42.676;23.320;2023-11-21T06:20:18;94496.59;;;3.19;76.98
38400;BME280;24180;42.676;23.320;2023-11-21T06:22:45;94498.94;;;3.22;76.98
38400;BME280;24180;42.676;23.320;2023-11-21T06:25:12;94507.34;;;3.24;76.98
38400;BME280;24180;42.676;23.320;2023-11-21T06:27:46;94471.03;;;3.19;76.98
38400;BME280;24180;42.676;23.320;2023-11-21T06:30:15;94506.78;;;3.44;76.99
38400;BME280;24180;42.676;23.320;2023-11-21T06:32:42;94495.00;;;3.42;77.00
38400;BME280;24180;42.676;23.320;2023-11-21T06:35:10;94498.56;;;3.52;77.00
38400;BME280;24180;42.676;23.320;2023-11-21T06:37:36;94510.22;;;3.56;77.01
38400;BME280;24180;42.676;23.320;2023-11-21T06:40:01;94518.41;;;3.61;77.01
38400;BME280;24180;42.676;23.320;2023-11-21T06:42:29;94512.91;;;3.42;77.00
38400;BME280;24180;42.676;23.320;2023-11-21T06:44:54;94519.72;;;3.66;77.02
38400;BME280;24180;42.676;23.320;2023-11-21T06:47:23;94523.47;;;3.73;77.03
38400;BME280;24180;42.676;23.320;2023-11-21T06:49:52;94494.06;;;3.55;77.01
38400;BME280;24180;42.676;23.320;2023-11-21T06:52:18;94472.53;;;3.72;77.03
38400;BME280;24180;42.676;23.320;2023-11-21T06:54:43;94529.00;;;3.80;77.04
38400;BME280;24180;42.676;23.320;2023-11-21T06:57:09;94482.34;;;3.73;77.03
38400;BME280;24180;42.676;23.320;2023-11-21T06:59:35;94526.78;;;3.95;77.05
38400;BME280;24180;42.676;23.320;2023-11-21T07:02:01;94506.00;;;3.96;77.05
38400;BME280;24180;42.676;23.320;2023-11-21T07:04:26;94543.75;;;4.10;77.07
38400;BME280;24180;42.676;23.320;2023-11-21T07:06:53;94510.81;;;4.07;77.06
38400;BME280;24180;42.676;23.320;2023-11-21T07:09:19;94522.50;;;4.16;77.07
38400;BME280;24180;42.676;23.320;2023-11-21T07:11:50;94525.31;;;4.19;77.07
38400;BME280;24180;42.676;23.320;2023-11-21T07:14:16;94526.31;;;4.29;77.08
38400;BME280;24180;42.676;23.320;2023-11-21T07:16:42;94493.91;;;4.28;77.08
38400;BME280;24180;42.676;23.320;2023-11-21T07:19:08;94502.03;;;4.32;77.08
38400;BME280;24180;42.676;23.320;2023-11-21T07:21:34;94533.66;;;4.54;77.10
38400;BME280;24180;42.676;23.320;2023-11-21T07:24:03;94509.41;;;4.47;77.10
38400;BME280;24180;42.676;23.320;2023-11-21T07:26:30;94532.75;;;4.62;77.12
38400;BME280;24180;42.676;23.320;2023-11-21T07:28:55;94528.25;;;4.71;77.12
38400;BME280;24180;42.676;23.320;2023-11-21T07:31:22;94538.53;;;4.83;77.13
38400;BME280;24180;42.676;23.320;2023-11-21T07:33:47;94511.22;;;4.80;77.13
38400;BME280;24180;42.676;23.320;2023-11-21T07:36:14;94539.03;;;5.04;77.15
38400;BME280;24180;42.676;23.320;2023-11-21T07:38:39;94513.94;;;4.91;77.14
38400;BME280;24180;42.676;23.320;2023-11-21T07:41:05;94549.03;;;5.07;77.15
38400;BME280;24180;42.676;23.320;2023-11-21T07:43:34;94538.44;;;5.06;77.15
38400;BME280;24180;42.676;23.320;2023-11-21T07:46:03;94530.16;;;5.14;77.17
38400;BME280;24180;42.676;23.320;2023-11-21T07:48:33;94519.56;;;5.07;77.15
38400;BME280;24180;42.676;23.320;2023-11-21T07:50:59;94535.66;;;5.32;77.17
38400;BME280;24180;42.676;23.320;2023-11-21T07:53:25;94530.19;;;5.25;77.17
38400;BME280;24180;42.676;23.320;2023-11-21T07:55:53;94519.88;;;5.30;77.17
38400;BME280;24180;42.676;23.320;2023-11-21T07:58:19;94511.94;;;5.50;77.20
38400;BME280;24180;42.676;23.320;2023-11-21T08:00:44;94518.31;;;5.65;77.21
38400;BME280;24180;42.676;23.320;2023-11-21T08:03:09;94478.63;;;5.65;77.21
38400;BME280;24180;42.676;23.320;2023-11-21T08:05:36;94516.13;;;5.74;77.22
38400;BME280;24180;42.676;23.320;2023-11-21T08:08:02;94525.94;;;5.99;77.42
38400;BME280;24180;42.676;23.320;2023-11-21T08:10:27;94519.63;;;6.16;77.26
38400;BME280;24180;42.676;23.320;2023-11-21T08:12:53;94531.72;;;6.36;77.27
38400;BME280;24180;42.676;23.320;2023-11-21T08:15:19;94524.94;;;6.55;77.29
38400;BME280;24180;42.676;23.320;2023-11-21T08:17:46;94570.66;;;6.71;77.48
38400;BME280;24180;42.676;23.320;2023-11-21T08:20:12;94524.25;;;6.74;77.31
38400;BME280;24180;42.676;23.320;2023-11-21T08:22:38;94547.75;;;6.81;77.32
38400;BME280;24180;42.676;23.320;2023-11-21T08:25:06;94549.56;;;6.90;77.33
38400;BME280;24180;42.676;23.320;2023-11-21T08:27:33;94536.38;;;6.83;77.32
38400;BME280;24180;42.676;23.320;2023-11-21T08:30:00;94521.56;;;6.76;77.31
38400;BME280;24180;42.676;23.320;2023-11-21T08:32:25;94535.56;;;6.97;77.33
38400;BME280;24180;42.676;23.320;2023-11-21T08:34:51;94519.50;;;6.84;77.50
38400;BME280;24180;42.676;23.320;2023-11-21T08:37:16;94530.84;;;7.18;77.54
38400;BME280;24180;42.676;23.320;2023-11-21T08:39:44;94538.75;;;7.28;77.54
38400;BME280;24180;42.676;23.320;2023-11-21T08:42:09;94533.72;;;7.53;77.56
38400;BME280;24180;42.676;23.320;2023-11-21T08:44:35;94538.38;;;7.71;77.57
38400;BME280;24180;42.676;23.320;2023-11-21T08:47:00;94534.19;;;7.79;77.59
38400;BME280;24180;42.676;23.320;2023-11-21T08:49:25;94547.63;;;7.83;77.60
38400;BME280;24180;42.676;23.320;2023-11-21T08:51:54;94509.09;;;7.72;77.40
38400;BME280;24180;42.676;23.320;2023-11-21T08:54:25;94542.88;;;7.69;77.58
38400;BME280;24180;42.676;23.320;2023-11-21T08:56:51;94504.19;;;7.95;77.61
38400;BME280;24180;42.676;23.320;2023-11-21T08:59:17;94530.44;;;8.11;77.61
38400;BME280;24180;42.676;23.320;2023-11-21T09:01:42;94508.84;;;8.12;77.61
38400;BME280;24180;42.676;23.320;2023-11-21T09:04:08;94506.88;;;8.34;77.64
38400;BME280;24180;42.676;23.320;2023-11-21T09:06:33;94489.09;;;8.33;77.64
38400;BME280;24180;42.676;23.320;2023-11-21T09:08:59;94487.19;;;8.25;77.63
38400;BME280;24180;42.676;23.320;2023-11-21T09:11:24;94476.63;;;8.38;77.64
38400;BME280;24180;42.676;23.320;2023-11-21T09:13:51;94487.00;;;8.73;77.67
38400;BME280;24180;42.676;23.320;2023-11-21T09:16:17;94559.94;;;8.96;77.70
38400;BME280;24180;42.676;23.320;2023-11-21T09:18:42;94471.84;;;8.99;77.69
38400;BME280;24180;42.676;23.320;2023-11-21T09:21:08;94478.66;;;9.10;77.71
38400;BME280;24180;42.676;23.320;2023-11-21T09:23:35;94472.94;;;9.06;77.71
38400;BME280;24180;42.676;23.320;2023-11-21T09:26:00;94461.97;;;9.20;77.72
38400;BME280;24180;42.676;23.320;2023-11-21T09:28:27;94453.53;;;9.29;77.73
38400;BME280;24180;42.676;23.320;2023-11-21T09:30:53;94433.97;;;9.40;77.73
38400;BME280;24180;42.676;23.320;2023-11-21T09:33:18;94421.63;;;9.47;77.75
38400;BME280;24180;42.676;23.320;2023-11-21T09:35:44;94423.09;;;9.81;77.78
38400;BME280;24180;42.676;23.320;2023-11-21T09:38:10;94418.94;;;10.20;77.81
38400;BME280;24180;42.676;23.320;2023-11-21T09:40:37;94410.63;;;10.51;77.85
38400;BME280;24180;42.676;23.320;2023-11-21T09:43:07;94427.09;;;10.95;77.88
38400;BME280;24180;42.676;23.320;2023-11-21T09:45:38;94378.84;;;11.31;77.91
38400;BME280;24180;42.676;23.320;2023-11-21T09:48:05;94410.13;;;11.90;77.97
38400;BME280;24180;42.676;23.320;2023-11-21T09:50:32;94448.94;;;12.33;78.00
38400;BME280;24180;42.676;23.320;2023-11-21T09:53:17;94390.50;;;12.29;78.01
38400;BME280;24180;42.676;23.320;2023-11-21T09:55:45;94402.81;;;12.68;78.04
38400;BME280;24180;42.676;23.320;2023-11-21T09:58:11;94409.31;;;12.73;79.84
38400;BME280;24180;42.676;23.320;2023-11-21T10:00:41;94393.50;;;13.06;79.52
38400;BME280;24180;42.676;23.320;2023-11-21T10:03:08;94402.72;;;13.63;79.93
38400;BME280;24180;42.676;23.320;2023-11-21T10:05:35;94395.09;;;14.34;80.00
38400;BME280;24180;42.676;23.320;2023-11-21T10:08:00;94406.56;;;14.51;78.56
38400;BME280;24180;42.676;23.320;2023-11-21T10:10:27;94407.34;;;14.07;79.62
38400;BME280;24180;42.676;23.320;2023-11-21T10:12:56;94375.28;;;14.07;79.98
38400;BME280;24180;42.676;23.320;2023-11-21T10:15:23;94373.16;;;14.32;80.00
38400;BME280;24180;42.676;23.320;2023-11-21T10:17:53;94404.66;;;15.28;80.08
38400;BME280;24180;42.676;23.320;2023-11-21T10:20:20;94390.81;;;14.79;80.04
38400;BME280;24180;42.676;23.320;2023-11-21T10:22:46;94400.72;;;14.46;80.01
38400;BME280;24180;42.676;23.320;2023-11-21T10:25:12;94396.22;;;14.34;80.00
38400;BME280;24180;42.676;23.320;2023-11-21T10:27:41;94426.81;;;13.87;79.95
38400;BME280;24180;42.676;23.320;2023-11-21T10:30:09;94421.63;;;13.79;79.95
38400;BME280;24180;42.676;23.320;2023-11-21T10:32:41;94370.25;;;13.52;79.92
38400;BME280;24180;42.676;23.320;2023-11-21T10:35:08;94368.59;;;13.24;79.89
38400;BME280;24180;42.676;23.320;2023-11-21T10:37:39;94335.75;;;12.72;79.84
38400;BME280;24180;42.676;23.320;2023-11-21T10:40:11;94315.22;;;12.99;79.87
38400;BME280;24180;42.676;23.320;2023-11-21T10:42:40;94386.03;;;13.03;79.88
38400;BME280;24180;42.676;23.320;2023-11-21T10:45:07;94365.19;;;13.17;79.89
38400;BME280;24180;42.676;23.320;2023-11-21T10:47:41;94338.91;;;13.13;79.88
38400;BME280;24180;42.676;23.320;2023-11-21T10:50:07;94345.22;;;12.55;79.83
38400;BME280;24180;42.676;23.320;2023-11-21T10:52:42;94352.06;;;12.05;79.79
38400;BME280;24180;42.676;23.320;2023-11-21T10:55:18;94325.88;;;11.42;79.71
38400;BME280;24180;42.676;23.320;2023-11-21T10:57:48;94329.75;;;11.40;79.72
38400;BME280;24180;42.676;23.320;2023-11-21T11:00:16;94350.13;;;11.36;79.72
38400;BME280;24180;42.676;23.320;2023-11-21T11:02:45;94347.44;;;11.50;79.73
38400;BME280;24180;42.676;23.320;2023-11-21T11:05:14;94315.97;;;11.31;79.71
38400;BME280;24180;42.676;23.320;2023-11-21T11:07:42;94333.81;;;11.42;79.72
38400;BME280;24180;42.676;23.320;2023-11-21T11:10:09;94319.03;;;11.33;79.71
38400;BME280;24180;42.676;23.320;2023-11-21T11:12:39;94349.41;;;11.51;79.73
38400;BME280;24180;42.676;23.320;2023-11-21T11:15:05;94345.28;;;11.33;79.71
38400;BME280;24180;42.676;23.320;2023-11-21T11:17:33;94328.13;;;11.39;79.72
38400;BME280;24180;42.676;23.320;2023-11-21T11:19:59;94321.66;;;11.44;79.72
38400;BME280;24180;42.676;23.320;2023-11-21T11:25:21;94291.38;;;11.67;79.74
38400;BME280;24180;42.676;23.320;2023-11-21T11:28:11;94324.66;;;11.75;79.75
38400;BME280;24180;42.676;23.320;2023-11-21T11:31:05;94320.75;;;11.85;79.76
38400;BME280;24180;42.676;23.320;2023-11-21T11:33:52;94323.34;;;11.70;79.74
38400;BME280;24180;42.676;23.320;2023-11-21T11:36:41;94318.13;;;11.70;79.74
38400;BME280;24180;42.676;23.320;2023-11-21T11:39:48;94321.06;;;11.59;79.74
38400;BME280;24180;42.676;23.320;2023-11-21T11:42:17;94323.13;;;11.48;79.73
38400;BME280;24180;42.676;23.320;2023-11-21T11:47:20;94302.19;;;11.22;79.70
38400;BME280;24180;42.676;23.320;2023-11-21T11:50:08;94298.56;;;11.07;79.68
38400;BME280;24180;42.676;23.320;2023-11-21T11:52:52;94265.47;;;10.86;79.67
38400;BME280;24180;42.676;23.320;2023-11-21T11:55:21;94261.25;;;10.84;79.67
38400;BME280;24180;42.676;23.320;2023-11-21T11:57:53;94328.31;;;10.64;79.65
38400;BME280;24180;42.676;23.320;2023-11-21T12:02:55;94230.06;;;10.52;79.64
38400;BME280;24180;42.676;23.320;2023-11-21T12:05:25;94311.59;;;10.50;79.64
38400;BME280;24180;42.676;23.320;2023-11-21T12:07:57;94296.91;;;10.31;78.18
38400;BME280;24180;42.676;23.320;2023-11-21T12:10:24;94291.22;;;10.21;79.61
38400;BME280;24180;42.676;23.320;2023-11-21T12:12:55;94304.66;;;10.07;79.23
38400;BME280;24180;42.676;23.320;2023-11-21T12:15:21;59242.25;;;26.01;80.97
38400;BME280;24180;42.676;23.320;2023-11-21T12:17:48;94306.09;;;10.02;79.58
38400;BME280;24180;42.676;23.320;2023-11-21T12:20:15;94302.19;;;9.80;79.56
38400;BME280;24180;42.676;23.320;2023-11-21T12:22:53;94286.19;;;9.76;79.56
38400;BME280;24180;42.676;23.320;2023-11-21T12:25:20;94313.97;;;9.87;79.58
38400;BME280;24180;42.676;23.320;2023-11-21T12:27:50;59275.25;;;26.01;81.09
38400;BME280;24180;42.676;23.320;2023-11-21T12:30:21;94291.84;;;9.80;77.77
38400;BME280;24180;42.676;23.320;2023-11-21T12:32:51;94302.81;;;9.74;79.21
38400;BME280;24180;42.676;23.320;2023-11-21T12:35:17;94281.69;;;9.61;77.76
38400;BME280;24180;42.676;23.320;2023-11-21T12:37:45;94265.19;;;9.60;79.19
38400;BME280;24180;42.676;23.320;2023-11-21T12:40:11;94289.81;;;9.66;77.76
38400;BME280;24180;42.676;23.320;2023-11-21T12:42:41;94278.16;;;9.62;77.76
38400;BME280;24180;42.676;23.320;2023-11-21T12:45:18;94300.66;;;9.52;77.75
38400;BME280;24180;42.676;23.320;2023-11-21T12:48:02;94299.09;;;9.23;77.73
38400;BME280;24180;42.676;23.320;2023-11-21T12:50:33;94275.03;;;9.05;77.71
38400;BME280;24180;42.676;23.320;2023-11-21T12:53:19;94258.06;;;9.20;77.72
38400;BME280;24180;42.676;23.320;2023-11-21T12:55:44;94234.53;;;9.06;77.71
38400;BME280;24180;42.676;23.320;2023-11-21T12:58:15;94243.44;;;9.27;77.72
38400;BME280;24180;42.676;23.320;2023-11-21T13:00:48;94227.47;;;9.11;77.71
38400;BME280;24180;42.676;23.320;2023-11-21T13:03:15;94219.69;;;9.25;79.15
38400;BME280;24180;42.676;23.320;2023-11-21T13:05:44;94220.41;;;9.35;77.74
38400;BME280;24180;42.676;23.320;2023-11-21T13:08:11;94233.31;;;9.52;77.75